createdAt,value
2017-09-12T00:01:43.878Z,89.40
2017-09-12T00:04:13.163Z,89.40
2017-09-12T00:06:42.409Z,88.70
2017-09-12T00:09:11.678Z,88.90
2017-09-12T00:11:40.941Z,88.70
2017-09-12T00:14:10.237Z,88.70
2017-09-12T00:16:39.595Z,89.00
2017-09-12T00:19:08.873Z,89.00
2017-09-12T00:21:38.902Z,88.80
2017-09-12T00:24:08.150Z,88.80
2017-09-12T00:26:37.412Z,89.10
2017-09-12T00:29:06.674Z,89.40
2017-09-12T00:31:35.907Z,89.70
2017-09-12T00:34:05.166Z,89.80
2017-09-12T00:36:35.915Z,89.20
2017-09-12T00:39:05.194Z,89.20
2017-09-12T00:41:34.461Z,90.00
2017-09-12T00:44:04.266Z,89.70
2017-09-12T00:46:33.566Z,90.10
2017-09-12T00:49:02.810Z,90.20
2017-09-12T00:51:32.225Z,89.90
2017-09-12T00:54:01.496Z,90.00
2017-09-12T00:56:31.740Z,90.00
2017-09-12T00:59:00.997Z,90.30
2017-09-12T01:01:30.854Z,90.50
2017-09-12T01:04:00.120Z,90.40
2017-09-12T01:06:29.366Z,90.30
2017-09-12T01:09:00.150Z,90.10
2017-09-12T01:11:29.525Z,90.20
2017-09-12T01:13:59.826Z,90.10
2017-09-12T01:16:29.086Z,90.10
2017-09-12T01:18:58.361Z,90.10
2017-09-12T01:21:27.598Z,90.20
2017-09-12T01:23:57.044Z,90.20
2017-09-12T01:26:27.086Z,90.30
2017-09-12T01:28:56.342Z,90.30
2017-09-12T01:31:25.615Z,90.50
2017-09-12T01:33:55.181Z,90.50
2017-09-12T01:36:24.579Z,90.10
2017-09-12T01:38:54.057Z,90.30
2017-09-12T01:41:23.406Z,90.30
2017-09-12T01:43:52.677Z,90.30
2017-09-12T01:46:21.981Z,90.10
2017-09-12T01:48:52.035Z,90.10
2017-09-12T01:51:21.273Z,90.00
2017-09-12T01:53:50.510Z,89.70
2017-09-12T01:56:20.597Z,89.10
2017-09-12T01:58:50.024Z,89.10
2017-09-12T02:01:19.236Z,88.90
2017-09-12T02:03:49.250Z,89.40
2017-09-12T02:06:18.497Z,89.20
2017-09-12T02:08:47.954Z,89.60
2017-09-12T02:11:17.963Z,89.70
2017-09-12T02:13:47.234Z,89.60
2017-09-12T02:16:16.615Z,89.60
2017-09-12T02:18:45.882Z,90.00
2017-09-12T02:21:15.166Z,90.20
2017-09-12T02:23:44.755Z,90.30
2017-09-12T02:26:14.067Z,90.50
2017-09-12T02:28:43.316Z,90.60
2017-09-12T02:31:12.571Z,90.50
2017-09-12T02:33:41.971Z,90.20
2017-09-12T02:36:11.237Z,90.30
2017-09-12T02:38:40.587Z,90.10
2017-09-12T02:41:09.942Z,89.90
2017-09-12T02:43:39.189Z,90.00
2017-09-12T02:46:08.437Z,90.00
2017-09-12T02:48:37.826Z,89.70
2017-09-12T02:51:07.101Z,89.80
2017-09-12T02:53:36.386Z,90.00
2017-09-12T02:56:05.716Z,90.00
2017-09-12T02:58:35.819Z,90.00
2017-09-12T03:01:05.102Z,90.00
2017-09-12T03:03:34.376Z,90.10
2017-09-12T03:06:03.714Z,90.10
2017-09-12T03:08:33.227Z,90.10
2017-09-12T03:11:02.484Z,89.90
2017-09-12T03:13:31.758Z,90.10
2017-09-12T03:16:01.166Z,89.30
2017-09-12T03:18:30.430Z,89.70
2017-09-12T03:20:59.862Z,89.90
2017-09-12T03:23:29.064Z,89.70
2017-09-12T03:25:58.499Z,90.00
2017-09-12T03:28:27.731Z,89.50
2017-09-12T03:30:56.991Z,89.70
2017-09-12T03:33:26.402Z,89.30
2017-09-12T03:35:55.680Z,89.30
2017-09-12T03:38:25.049Z,89.60
2017-09-12T03:40:54.356Z,88.90
2017-09-12T03:43:24.467Z,88.60
2017-09-12T03:45:53.665Z,88.80
2017-09-12T03:48:22.916Z,88.80
2017-09-12T03:50:52.149Z,89.20
2017-09-12T03:53:21.421Z,88.40
2017-09-12T03:55:50.984Z,88.20
2017-09-12T03:58:20.226Z,88.50
2017-09-12T04:00:49.551Z,88.60
2017-09-12T04:03:18.974Z,88.30
2017-09-12T04:05:49.743Z,89.10
2017-09-12T04:08:19.151Z,89.10
2017-09-12T04:10:49.145Z,89.10
2017-09-12T04:13:18.466Z,89.10
2017-09-12T04:15:47.715Z,89.00
2017-09-12T04:18:17.167Z,89.20
2017-09-12T04:20:47.188Z,89.70
2017-09-12T04:23:16.574Z,89.70
2017-09-12T04:25:45.831Z,90.00
2017-09-12T04:28:15.099Z,90.00
2017-09-12T04:30:44.366Z,89.90
2017-09-12T04:33:13.773Z,89.70
2017-09-12T04:35:43.036Z,89.60
2017-09-12T04:38:12.288Z,89.40
2017-09-12T04:40:41.541Z,89.40
2017-09-12T04:43:10.789Z,89.40
2017-09-12T04:45:40.820Z,89.50
2017-09-12T04:48:10.204Z,89.50
2017-09-12T04:50:39.443Z,90.10
2017-09-12T04:53:08.728Z,90.50
2017-09-12T04:55:38.113Z,90.30
2017-09-12T04:58:08.141Z,90.20
2017-09-12T05:00:37.398Z,90.20
2017-09-12T05:03:06.870Z,90.20
2017-09-12T05:05:36.110Z,89.80
2017-09-12T05:08:05.389Z,89.30
2017-09-12T05:10:34.641Z,88.90
2017-09-12T05:13:03.883Z,89.30
2017-09-12T05:15:33.338Z,89.50
2017-09-12T05:18:03.341Z,89.50
2017-09-12T05:20:34.158Z,90.00
2017-09-12T05:23:03.562Z,90.00
2017-09-12T05:25:33.640Z,90.10
2017-09-12T05:28:02.890Z,90.30
2017-09-12T05:30:32.145Z,90.50
2017-09-12T05:33:01.410Z,90.50
2017-09-12T05:35:30.663Z,90.10
2017-09-12T05:37:59.921Z,89.80
2017-09-12T05:40:29.938Z,89.30
2017-09-12T05:42:59.198Z,89.30
2017-09-12T05:45:28.470Z,89.20
2017-09-12T05:47:58.490Z,89.50
2017-09-12T05:50:27.769Z,89.50
2017-09-12T05:52:57.008Z,89.50
2017-09-12T05:55:26.469Z,89.40
2017-09-12T05:57:56.505Z,89.70
2017-09-12T06:00:25.733Z,89.70
2017-09-12T06:02:55.044Z,90.00
2017-09-12T06:05:24.509Z,90.20
2017-09-12T06:07:54.513Z,90.70
2017-09-12T06:10:24.546Z,90.00
2017-09-12T06:12:54.550Z,89.90
2017-09-12T06:15:23.813Z,89.80
2017-09-12T06:17:53.076Z,89.70
2017-09-12T06:20:22.311Z,89.70
2017-09-12T06:22:51.746Z,88.00
2017-09-12T06:25:21.012Z,87.90
2017-09-12T06:27:50.257Z,87.60
2017-09-12T06:30:20.283Z,83.60
2017-09-12T06:32:49.522Z,83.40
2017-09-12T06:35:18.795Z,82.00
2017-09-12T06:37:48.041Z,81.70
2017-09-12T06:40:17.309Z,79.90
2017-09-12T06:42:46.563Z,78.30
2017-09-12T06:45:15.802Z,77.60
2017-09-12T06:47:45.047Z,76.30
2017-09-12T06:50:14.299Z,74.40
2017-09-12T06:52:43.567Z,73.60
2017-09-12T06:55:12.897Z,74.20
2017-09-12T06:57:42.295Z,74.50
2017-09-12T07:00:12.323Z,75.00
2017-09-12T07:02:41.563Z,75.00
2017-09-12T07:05:10.868Z,74.10
2017-09-12T07:07:40.105Z,74.00
2017-09-12T07:10:10.136Z,73.50
2017-09-12T07:12:39.402Z,73.50
2017-09-12T07:15:08.634Z,75.40
2017-09-12T07:17:37.886Z,74.80
2017-09-12T07:20:07.226Z,75.20
2017-09-12T07:22:37.237Z,72.00
2017-09-12T07:25:06.503Z,71.90
2017-09-12T07:27:35.954Z,71.30
2017-09-12T07:30:06.088Z,63.50
2017-09-12T07:32:35.582Z,63.40
2017-09-12T07:35:05.604Z,57.00
2017-09-12T07:37:34.875Z,56.90
2017-09-12T07:40:04.117Z,57.40
2017-09-12T07:42:33.384Z,58.50
2017-09-12T07:45:03.428Z,57.50
2017-09-12T07:47:33.009Z,57.00
2017-09-12T07:50:03.140Z,54.80
2017-09-12T07:52:32.361Z,55.00
2017-09-12T07:55:02.363Z,56.50
2017-09-12T07:57:32.511Z,55.40
2017-09-12T08:00:02.469Z,55.30
2017-09-12T08:02:31.737Z,55.70
2017-09-12T08:05:01.010Z,54.10
2017-09-12T08:07:31.030Z,52.80
2017-09-12T08:10:00.280Z,52.70
2017-09-12T08:12:29.644Z,54.80
2017-09-12T08:14:58.943Z,57.60
2017-09-12T08:17:29.675Z,62.80
2017-09-12T08:19:58.914Z,62.80
2017-09-12T08:22:28.181Z,63.80
2017-09-12T08:24:58.195Z,63.40
2017-09-12T08:27:27.502Z,63.30
2017-09-12T08:29:56.748Z,63.90
2017-09-12T08:32:26.055Z,64.40
2017-09-12T08:34:55.292Z,64.20
2017-09-12T08:37:25.290Z,62.60
2017-09-12T08:39:54.617Z,62.50
2017-09-12T08:42:23.805Z,55.90
2017-09-12T08:44:53.997Z,48.90
2017-09-12T08:47:23.259Z,48.80
2017-09-12T08:49:52.650Z,45.90
2017-09-12T08:52:23.448Z,42.60
2017-09-12T08:54:52.723Z,42.60
2017-09-12T08:57:21.975Z,40.10
2017-09-12T08:59:52.158Z,46.80
2017-09-12T09:02:22.599Z,48.20
2017-09-12T09:04:51.795Z,48.10
2017-09-12T09:07:21.825Z,48.50
2017-09-12T09:09:51.223Z,48.40
2017-09-12T09:12:20.502Z,48.80
2017-09-12T09:14:49.768Z,49.50
2017-09-12T09:17:19.015Z,51.40
2017-09-12T09:19:48.425Z,51.30
2017-09-12T09:22:17.726Z,52.50
2017-09-12T09:24:47.771Z,50.30
2017-09-12T09:27:17.167Z,50.30
2017-09-12T09:29:47.392Z,53.10
2017-09-12T09:32:16.684Z,53.10
2017-09-12T09:34:45.915Z,56.50
2017-09-12T09:37:16.041Z,58.00
2017-09-12T09:39:45.286Z,61.80
2017-09-12T09:42:14.613Z,61.10
2017-09-12T09:44:44.666Z,63.00
2017-09-12T09:47:13.902Z,62.90
2017-09-12T09:49:43.264Z,59.70
2017-09-12T09:52:12.470Z,60.10
2017-09-12T09:54:41.714Z,62.00
2017-09-12T09:57:11.929Z,61.90
2017-09-12T09:59:41.201Z,61.80
2017-09-12T10:02:10.446Z,63.40
2017-09-12T10:04:40.471Z,62.10
2017-09-12T10:07:10.409Z,61.30
2017-09-12T10:09:39.722Z,56.60
2017-09-12T10:12:08.966Z,52.00
2017-09-12T10:14:38.217Z,44.00
2017-09-12T10:17:07.507Z,41.70
2017-09-12T10:19:37.614Z,41.60
2017-09-12T10:22:07.619Z,45.00
2017-09-12T10:24:36.883Z,45.10
2017-09-12T10:27:06.326Z,47.60
2017-09-12T10:29:36.342Z,41.80
2017-09-12T10:38:05.845Z,41.80
2017-09-12T10:40:35.929Z,39.00
2017-09-12T10:43:05.179Z,39.00
2017-09-12T10:45:34.443Z,40.30
2017-09-12T10:48:04.470Z,43.80
2017-09-12T10:50:34.475Z,45.10
2017-09-12T10:53:04.503Z,47.70
2017-09-12T10:55:33.745Z,47.60
2017-09-12T10:58:03.016Z,48.90
2017-09-12T11:00:32.286Z,50.30
2017-09-12T11:03:02.285Z,52.80
2017-09-12T11:05:31.563Z,54.30
2017-09-12T11:08:00.806Z,53.10
2017-09-12T11:10:30.074Z,52.60
2017-09-12T11:12:59.341Z,50.50
2017-09-12T11:15:28.590Z,46.20
2017-09-12T11:17:57.860Z,42.10
2017-09-12T11:20:27.126Z,39.20
2017-09-12T11:22:57.144Z,40.00
2017-09-12T11:25:26.499Z,39.90
2017-09-12T11:27:56.382Z,42.30
2017-09-12T11:30:26.625Z,44.10
2017-09-12T11:32:55.879Z,44.10
2017-09-12T11:35:25.910Z,42.90
2017-09-12T11:37:55.294Z,42.90
2017-09-12T11:40:24.539Z,41.30
2017-09-12T11:42:53.929Z,40.20
2017-09-12T11:45:23.195Z,39.00
2017-09-12T11:47:52.435Z,37.00
2017-09-12T11:50:21.766Z,39.40
2017-09-12T11:52:51.028Z,39.30
2017-09-12T11:55:21.050Z,45.00
2017-09-12T11:57:50.291Z,44.90
2017-09-12T12:00:19.604Z,47.00
2017-09-12T12:02:48.846Z,49.60
2017-09-12T12:05:18.110Z,51.80
2017-09-12T12:07:47.378Z,52.10
2017-09-12T12:10:16.631Z,53.40
2017-09-12T12:12:46.874Z,55.60
2017-09-12T12:15:16.126Z,55.70
2017-09-12T12:17:45.389Z,55.00
2017-09-12T12:20:14.643Z,56.00
2017-09-12T12:22:43.934Z,54.10
2017-09-12T12:25:13.159Z,52.30
2017-09-12T12:27:42.629Z,51.70
2017-09-12T12:30:11.887Z,51.60
2017-09-12T12:32:41.185Z,52.10
2017-09-12T12:35:11.175Z,50.30
2017-09-12T12:37:40.414Z,50.20
2017-09-12T12:40:09.782Z,50.00
2017-09-12T12:42:39.034Z,51.40
2017-09-12T12:45:08.430Z,51.10
2017-09-12T12:47:37.693Z,51.00
2017-09-12T12:50:07.520Z,51.50
2017-09-12T12:52:36.803Z,51.50
2017-09-12T12:55:06.174Z,51.20
2017-09-12T12:57:35.578Z,50.30
2017-09-12T13:00:04.868Z,50.70
2017-09-12T13:02:34.138Z,50.00
2017-09-12T13:05:03.493Z,50.50
2017-09-12T13:07:32.747Z,50.60
2017-09-12T13:10:02.007Z,50.90
2017-09-12T13:12:31.256Z,49.30
2017-09-12T13:15:02.096Z,49.40
2017-09-12T13:17:31.366Z,49.20
2017-09-12T13:20:00.619Z,49.80
2017-09-12T13:22:29.874Z,48.00
2017-09-12T13:24:59.178Z,49.30
2017-09-12T13:27:29.277Z,50.50
2017-09-12T13:29:59.446Z,48.70
2017-09-12T13:32:29.438Z,47.40
2017-09-12T13:34:58.686Z,47.40
2017-09-12T13:37:27.962Z,48.00
2017-09-12T13:39:57.224Z,47.30
2017-09-12T13:42:26.629Z,47.20
2017-09-12T13:44:55.878Z,47.50
2017-09-12T13:47:25.138Z,48.10
2017-09-12T13:49:54.609Z,48.50
2017-09-12T13:52:23.857Z,51.20
2017-09-12T13:54:53.102Z,51.00
2017-09-12T13:57:23.153Z,51.00
2017-09-12T13:59:52.456Z,51.00
2017-09-12T14:02:22.487Z,52.00
2017-09-12T14:04:51.880Z,51.90
2017-09-12T14:07:21.915Z,51.40
2017-09-12T14:09:51.163Z,51.40
2017-09-12T14:12:21.941Z,51.00
2017-09-12T14:14:51.446Z,50.90
2017-09-12T14:17:20.725Z,51.10
2017-09-12T14:19:49.986Z,51.20
2017-09-12T14:22:19.234Z,51.00
2017-09-12T14:24:49.250Z,52.00
2017-09-12T14:27:18.497Z,52.00
2017-09-12T14:29:47.770Z,50.90
2017-09-12T14:32:17.612Z,50.30
2017-09-12T14:34:47.018Z,50.60
2017-09-12T14:37:16.248Z,49.60
2017-09-12T14:39:45.571Z,48.00
2017-09-12T14:42:15.638Z,49.60
2017-09-12T14:44:45.002Z,49.50
2017-09-12T14:47:15.035Z,50.00
2017-09-12T14:49:44.821Z,49.90
2017-09-12T14:52:14.275Z,50.10
2017-09-12T14:54:43.529Z,49.10
2017-09-12T14:57:12.769Z,50.00
2017-09-12T14:59:42.054Z,49.80
2017-09-12T15:02:11.508Z,49.80
2017-09-12T15:04:40.766Z,49.30
2017-09-12T15:07:10.008Z,50.10
2017-09-12T15:09:39.458Z,50.70
2017-09-12T15:12:08.700Z,49.50
2017-09-12T15:14:37.963Z,48.60
2017-09-12T15:17:07.219Z,48.70
2017-09-12T15:19:36.499Z,48.70
2017-09-12T15:22:05.934Z,48.90
2017-09-12T15:24:35.954Z,49.30
2017-09-12T15:27:05.238Z,49.50
2017-09-12T15:29:34.671Z,49.30
2017-09-12T15:32:04.711Z,50.60
2017-09-12T15:34:33.950Z,50.50
2017-09-12T15:37:03.200Z,52.20
2017-09-12T15:39:33.234Z,49.10
2017-09-12T15:42:02.471Z,49.00
2017-09-12T15:44:31.742Z,47.60
2017-09-12T15:47:00.986Z,49.60
2017-09-12T15:49:30.256Z,48.90
2017-09-12T15:51:59.513Z,49.30
2017-09-12T15:54:28.773Z,51.00
2017-09-12T15:56:58.038Z,51.50
2017-09-12T15:59:27.277Z,51.50
2017-09-12T16:01:56.629Z,52.70
2017-09-12T16:04:25.917Z,50.90
2017-09-12T16:06:56.142Z,51.40
2017-09-12T16:09:25.394Z,51.30
2017-09-12T16:11:54.654Z,52.00
2017-09-12T16:14:23.938Z,52.20
2017-09-12T16:16:53.950Z,52.80
2017-09-12T16:19:23.274Z,52.80
2017-09-12T16:21:54.066Z,53.60
2017-09-12T16:24:23.338Z,53.60
2017-09-12T16:26:52.575Z,54.30
2017-09-12T16:29:21.829Z,54.50
2017-09-12T16:31:51.094Z,55.40
2017-09-12T16:34:21.138Z,55.30
2017-09-12T16:36:50.516Z,55.30
2017-09-12T16:39:19.929Z,55.80
2017-09-12T16:41:49.310Z,56.00
2017-09-12T16:44:18.695Z,56.90
2017-09-12T16:46:47.949Z,56.70
2017-09-12T16:49:17.207Z,57.60
2017-09-12T16:51:46.561Z,60.00
2017-09-12T16:54:15.778Z,64.80
2017-09-12T16:56:45.038Z,69.50
2017-09-12T16:59:14.316Z,66.70
2017-09-12T17:01:43.580Z,72.60
2017-09-12T17:04:12.815Z,72.80
2017-09-12T17:06:42.083Z,74.40
2017-09-12T17:09:11.379Z,75.90
2017-09-12T17:11:40.738Z,78.00
2017-09-12T17:14:10.753Z,79.10
2017-09-12T17:16:40.024Z,79.10
2017-09-12T17:19:09.279Z,80.00
2017-09-12T17:21:38.574Z,79.80
2017-09-12T17:24:08.586Z,80.10
2017-09-12T17:26:37.891Z,80.00
2017-09-12T17:29:07.150Z,80.40
2017-09-12T17:31:36.467Z,81.30
2017-09-12T17:34:07.382Z,82.90
2017-09-12T17:36:37.104Z,82.90
2017-09-12T17:39:06.356Z,84.10
2017-09-12T17:41:35.622Z,84.50
2017-09-12T17:44:05.257Z,86.10
2017-09-12T17:46:35.097Z,85.50
2017-09-12T17:49:04.613Z,85.60
2017-09-12T17:51:34.391Z,85.50
2017-09-12T17:54:04.103Z,86.10
2017-09-12T17:56:33.984Z,86.70
2017-09-12T17:59:03.626Z,87.70
2017-09-12T18:01:33.235Z,87.60
2017-09-12T18:04:02.559Z,87.90
2017-09-12T18:06:31.818Z,88.60
2017-09-12T18:09:01.140Z,89.50
2017-09-12T18:11:30.399Z,90.30
2017-09-12T18:13:59.642Z,90.90
2017-09-12T18:16:28.918Z,90.80
2017-09-12T18:18:58.926Z,91.00
2017-09-12T18:21:28.341Z,91.00
2017-09-12T18:23:57.604Z,91.00
2017-09-12T18:26:26.879Z,91.00
2017-09-12T18:28:56.231Z,91.00
2017-09-12T18:31:25.473Z,91.20
2017-09-12T18:33:54.766Z,91.30
2017-09-12T18:36:24.022Z,91.20
2017-09-12T18:38:53.711Z,91.20
2017-09-12T18:41:23.112Z,90.80
2017-09-12T18:43:52.343Z,90.40
2017-09-12T18:46:21.614Z,90.20
2017-09-12T18:48:50.886Z,90.30
2017-09-12T18:51:20.862Z,90.60
2017-09-12T18:53:50.290Z,90.50
2017-09-12T18:56:20.328Z,90.20
2017-09-12T18:58:49.749Z,90.20
2017-09-12T19:01:19.023Z,90.20
2017-09-12T19:03:49.078Z,90.20
2017-09-12T19:06:18.344Z,90.20
2017-09-12T19:08:47.631Z,90.40
2017-09-12T19:11:16.913Z,90.10
2017-09-12T19:13:46.187Z,90.10
2017-09-12T19:16:15.442Z,90.20
2017-09-12T19:18:45.482Z,90.10
2017-09-12T19:21:14.734Z,90.10
2017-09-12T19:23:45.521Z,90.10
2017-09-12T19:26:14.771Z,90.10
2017-09-12T19:28:44.046Z,89.90
2017-09-12T19:31:13.411Z,89.80
2017-09-12T19:33:42.634Z,89.30
2017-09-12T19:36:11.932Z,88.40
2017-09-12T19:38:41.270Z,88.40
2017-09-12T19:41:10.535Z,87.90
2017-09-12T19:43:40.229Z,87.90
2017-09-12T19:46:09.725Z,88.00
2017-09-12T19:48:39.764Z,88.80
2017-09-12T19:51:09.037Z,88.80
2017-09-12T19:53:38.293Z,89.00
2017-09-12T19:56:07.551Z,87.90
2017-09-12T19:58:36.869Z,88.80
2017-09-12T20:01:06.147Z,88.90
2017-09-12T20:03:35.403Z,89.00
2017-09-12T20:06:04.690Z,89.20
2017-09-12T20:08:34.034Z,89.10
2017-09-12T20:11:03.294Z,89.60
2017-09-12T20:13:32.553Z,90.10
2017-09-12T20:16:01.830Z,90.20
2017-09-12T20:18:31.110Z,90.40
2017-09-12T20:21:00.373Z,90.30
2017-09-12T20:23:29.653Z,90.30
2017-09-12T20:25:59.680Z,90.40
2017-09-12T20:28:28.959Z,90.40
2017-09-12T20:30:58.237Z,90.70
2017-09-12T20:33:29.099Z,90.60
2017-09-12T20:35:59.117Z,90.80
2017-09-12T20:38:28.499Z,90.50
2017-09-12T20:40:57.769Z,90.50
2017-09-12T20:43:27.028Z,90.60
2017-09-12T20:45:56.552Z,90.80
2017-09-12T20:48:25.926Z,90.80
2017-09-12T20:50:55.160Z,90.60
2017-09-12T20:53:24.417Z,90.50
2017-09-12T20:55:53.671Z,90.20
2017-09-12T20:58:22.928Z,90.40
2017-09-12T21:00:52.319Z,90.00
2017-09-12T21:03:21.613Z,90.00
2017-09-12T21:05:50.894Z,90.00
2017-09-12T21:08:20.164Z,90.00
2017-09-12T21:10:49.447Z,90.00
2017-09-12T21:13:19.344Z,90.00
2017-09-12T21:15:48.613Z,89.90
2017-09-12T21:18:17.873Z,90.10
2017-09-12T21:20:47.238Z,90.20
2017-09-12T21:23:16.514Z,90.20
2017-09-12T21:25:45.776Z,90.20
2017-09-12T21:28:15.062Z,90.10
2017-09-12T21:30:44.352Z,90.10
2017-09-12T21:33:13.593Z,90.20
2017-09-12T21:35:42.839Z,90.60
2017-09-12T21:38:12.918Z,90.20
2017-09-12T21:40:42.378Z,90.10
2017-09-12T21:43:12.052Z,90.50
2017-09-12T21:45:41.343Z,90.90
2017-09-12T21:48:10.638Z,90.80
2017-09-12T21:50:40.055Z,90.70
2017-09-12T21:53:09.302Z,90.60
2017-09-12T21:55:38.541Z,90.40
2017-09-12T21:58:07.814Z,90.60
2017-09-12T22:00:37.834Z,90.50
2017-09-12T22:03:07.101Z,90.50
2017-09-12T22:05:36.525Z,90.30
2017-09-12T22:08:05.848Z,90.30
2017-09-12T22:10:35.134Z,90.50
2017-09-12T22:13:05.445Z,90.50
2017-09-12T22:15:34.759Z,90.50
2017-09-12T22:18:03.995Z,90.70
2017-09-12T22:20:33.247Z,90.60
2017-09-12T22:23:02.666Z,90.80
2017-09-12T22:25:32.670Z,91.00
2017-09-12T22:28:01.946Z,91.00
2017-09-12T22:30:31.210Z,91.00
2017-09-12T22:33:00.477Z,90.90
2017-09-12T22:35:29.735Z,90.80
2017-09-12T22:37:58.988Z,90.90
2017-09-12T22:40:28.245Z,90.60
2017-09-12T22:42:57.522Z,90.60
2017-09-12T22:45:26.773Z,90.70
2017-09-12T22:47:56.046Z,90.60
2017-09-12T22:50:25.535Z,90.80
2017-09-12T22:52:54.896Z,90.90
2017-09-12T22:55:24.151Z,90.90
2017-09-12T22:57:53.399Z,90.80
2017-09-12T23:00:23.512Z,90.70
2017-09-12T23:02:52.801Z,90.50
2017-09-12T23:05:22.070Z,90.40
2017-09-12T23:07:51.330Z,90.50
2017-09-12T23:10:20.618Z,90.50
2017-09-12T23:12:49.869Z,90.50
2017-09-12T23:15:19.152Z,90.60
2017-09-12T23:17:48.395Z,90.50
2017-09-12T23:20:17.645Z,90.40
2017-09-12T23:22:46.900Z,90.30
2017-09-12T23:25:16.200Z,90.50
2017-09-12T23:27:46.269Z,90.60
2017-09-12T23:30:15.613Z,90.60
2017-09-12T23:32:45.320Z,90.80
2017-09-12T23:35:14.627Z,91.00
2017-09-12T23:37:43.879Z,91.00
2017-09-12T23:40:13.232Z,91.10
2017-09-12T23:42:42.504Z,91.30
2017-09-12T23:45:11.770Z,91.30
2017-09-12T23:47:41.154Z,91.60
2017-09-12T23:50:10.415Z,91.50
2017-09-12T23:52:39.770Z,91.30
2017-09-12T23:55:09.893Z,91.20
2017-09-12T23:57:39.890Z,91.20
